createdAt,value
2018-09-14T00:00:53.885Z,80.50
2018-09-14T00:03:22.213Z,80.50
2018-09-14T00:05:50.528Z,80.60
2018-09-14T00:08:18.869Z,80.70
2018-09-14T00:10:47.190Z,80.70
2018-09-14T00:13:15.512Z,80.70
2018-09-14T00:15:43.818Z,80.70
2018-09-14T00:18:12.145Z,80.90
2018-09-14T00:20:40.468Z,80.90
2018-09-14T00:23:08.813Z,81.00
2018-09-14T00:25:37.123Z,81.80
2018-09-14T00:28:05.480Z,80.80
2018-09-14T00:30:33.786Z,81.20
2018-09-14T00:33:02.116Z,81.30
2018-09-14T00:35:30.426Z,81.40
2018-09-14T00:37:58.754Z,81.40
2018-09-14T00:40:27.080Z,81.50
2018-09-14T00:42:55.421Z,81.60
2018-09-14T00:45:23.731Z,81.60
2018-09-14T00:47:52.070Z,81.60
2018-09-14T00:50:20.381Z,81.70
2018-09-14T00:52:48.701Z,81.90
2018-09-14T00:55:17.035Z,82.20
2018-09-14T00:57:45.370Z,82.30
2018-09-14T01:00:20.224Z,82.60
2018-09-14T01:02:48.554Z,82.70
2018-09-14T01:07:51.648Z,82.80
2018-09-14T01:10:19.996Z,82.90
2018-09-14T01:12:48.333Z,82.80
2018-09-14T01:15:16.645Z,82.80
2018-09-14T01:17:44.975Z,82.80
2018-09-14T01:20:13.340Z,82.70
2018-09-14T01:22:41.650Z,82.60
2018-09-14T01:25:09.970Z,82.60
2018-09-14T01:27:38.311Z,82.80
2018-09-14T01:30:06.917Z,82.90
2018-09-14T01:32:35.248Z,82.90
2018-09-14T01:35:07.805Z,82.80
2018-09-14T01:37:36.141Z,82.90
2018-09-14T01:40:04.542Z,83.00
2018-09-14T01:42:32.881Z,83.30
2018-09-14T01:45:01.201Z,83.40
2018-09-14T01:47:29.536Z,83.40
2018-09-14T01:49:57.852Z,83.60
2018-09-14T01:52:26.181Z,83.40
2018-09-14T01:54:54.513Z,83.70
2018-09-14T01:57:22.894Z,83.60
2018-09-14T01:59:51.227Z,83.50
2018-09-14T02:02:19.605Z,83.80
2018-09-14T02:04:47.921Z,84.00
2018-09-14T02:07:16.269Z,84.20
2018-09-14T02:09:44.596Z,84.10
2018-09-14T02:12:12.969Z,84.20
2018-09-14T02:14:41.310Z,84.30
2018-09-14T02:17:09.663Z,84.50
2018-09-14T02:19:38.035Z,84.50
2018-09-14T02:22:06.439Z,84.60
2018-09-14T02:24:34.858Z,84.80
2018-09-14T02:27:03.211Z,85.10
2018-09-14T02:29:31.573Z,85.20
2018-09-14T02:31:59.902Z,85.30
2018-09-14T02:34:28.264Z,85.40
2018-09-14T02:36:56.596Z,85.50
2018-09-14T02:39:24.968Z,85.50
2018-09-14T02:41:53.315Z,85.60
2018-09-14T02:44:21.685Z,85.70
2018-09-14T02:46:50.025Z,85.70
2018-09-14T02:49:18.391Z,85.70
2018-09-14T02:51:46.718Z,85.90
2018-09-14T02:54:15.089Z,86.00
2018-09-14T02:56:43.422Z,86.20
2018-09-14T03:01:46.543Z,86.20
2018-09-14T03:04:14.915Z,86.30
2018-09-14T03:06:43.264Z,86.30
2018-09-14T03:09:11.627Z,86.40
2018-09-14T03:11:39.969Z,86.20
2018-09-14T03:14:08.451Z,86.30
2018-09-14T03:16:36.837Z,86.40
2018-09-14T03:19:05.307Z,86.50
2018-09-14T03:21:33.630Z,86.70
2018-09-14T03:24:01.974Z,86.80
2018-09-14T03:26:30.300Z,86.80
2018-09-14T03:28:58.646Z,86.90
2018-09-14T03:31:26.980Z,87.10
2018-09-14T03:33:55.345Z,87.30
2018-09-14T03:36:23.695Z,87.30
2018-09-14T03:38:52.049Z,87.60
2018-09-14T03:41:20.378Z,87.70
2018-09-14T03:43:48.722Z,88.30
2018-09-14T03:46:17.045Z,87.50
2018-09-14T03:48:45.397Z,87.60
2018-09-14T03:51:13.734Z,87.60
2018-09-14T03:53:42.098Z,87.70
2018-09-14T03:56:10.423Z,87.80
2018-09-14T03:58:38.769Z,87.90
2018-09-14T04:01:07.241Z,87.90
2018-09-14T04:03:35.588Z,87.90
2018-09-14T04:06:03.919Z,87.90
2018-09-14T04:08:32.267Z,87.70
2018-09-14T04:11:00.616Z,87.90
2018-09-14T04:13:28.962Z,87.90
2018-09-14T04:15:57.306Z,88.00
2018-09-14T04:18:25.669Z,88.00
2018-09-14T04:20:54.091Z,88.20
2018-09-14T04:23:22.482Z,88.10
2018-09-14T04:25:50.817Z,88.10
2018-09-14T04:28:19.202Z,88.10
2018-09-14T04:30:47.561Z,88.40
2018-09-14T04:33:15.892Z,88.50
2018-09-14T04:35:44.262Z,88.50
2018-09-14T04:38:12.646Z,88.60
2018-09-14T04:40:40.978Z,88.60
2018-09-14T04:43:09.306Z,87.80
2018-09-14T04:45:37.652Z,88.80
2018-09-14T04:48:05.980Z,88.70
2018-09-14T04:50:34.343Z,88.80
2018-09-14T04:53:02.677Z,88.70
2018-09-14T04:55:31.035Z,88.60
2018-09-14T04:57:59.377Z,88.50
2018-09-14T05:00:27.727Z,88.80
2018-09-14T05:02:56.045Z,88.80
2018-09-14T05:05:24.394Z,88.20
2018-09-14T05:07:52.737Z,89.10
2018-09-14T05:10:21.102Z,89.10
2018-09-14T05:12:49.421Z,88.90
2018-09-14T05:15:17.761Z,89.10
2018-09-14T05:17:46.087Z,89.20
2018-09-14T05:20:14.443Z,89.90
2018-09-14T05:22:42.770Z,89.20
2018-09-14T05:25:11.160Z,89.20
2018-09-14T05:27:39.486Z,89.20
2018-09-14T05:30:07.825Z,89.30
2018-09-14T05:32:36.149Z,88.70
2018-09-14T05:35:04.542Z,89.20
2018-09-14T05:37:32.990Z,89.30
2018-09-14T05:40:01.332Z,89.30
2018-09-14T05:42:29.646Z,89.50
2018-09-14T05:44:57.999Z,89.50
2018-09-14T05:47:26.422Z,89.50
2018-09-14T05:49:54.778Z,89.60
2018-09-14T05:52:23.103Z,89.80
2018-09-14T05:54:51.453Z,89.70
2018-09-14T05:57:19.823Z,89.70
2018-09-14T05:59:48.171Z,89.80
2018-09-14T06:02:16.497Z,89.90
2018-09-14T06:04:44.846Z,89.80
2018-09-14T06:07:13.170Z,89.90
2018-09-14T06:09:41.510Z,89.70
2018-09-14T06:12:09.869Z,89.70
2018-09-14T06:14:38.217Z,89.70
2018-09-14T06:17:06.703Z,89.60
2018-09-14T06:19:35.081Z,89.70
2018-09-14T06:22:03.421Z,89.60
2018-09-14T06:24:31.831Z,89.70
2018-09-14T06:27:00.158Z,89.70
2018-09-14T06:29:28.497Z,89.50
2018-09-14T06:31:56.865Z,89.20
2018-09-14T06:34:25.230Z,89.20
2018-09-14T06:36:53.567Z,89.20
2018-09-14T06:39:21.925Z,89.50
2018-09-14T06:41:50.266Z,89.50
2018-09-14T06:44:18.610Z,89.60
2018-09-14T06:46:46.947Z,89.30
2018-09-14T06:49:15.348Z,89.30
2018-09-14T06:51:43.684Z,89.30
2018-09-14T06:54:12.039Z,89.20
2018-09-14T06:56:40.374Z,89.10
2018-09-14T06:59:08.842Z,89.30
2018-09-14T07:01:37.195Z,89.10
2018-09-14T07:04:05.562Z,88.90
2018-09-14T07:06:33.958Z,88.70
2018-09-14T07:09:02.285Z,88.50
2018-09-14T07:11:30.667Z,88.50
2018-09-14T07:13:59.026Z,88.50
2018-09-14T07:16:27.350Z,88.60
2018-09-14T07:18:55.705Z,88.60
2018-09-14T07:21:24.038Z,88.50
2018-09-14T07:23:52.403Z,88.20
2018-09-14T07:26:20.751Z,87.50
2018-09-14T07:28:49.505Z,87.50
2018-09-14T07:31:17.748Z,87.40
2018-09-14T07:33:46.106Z,87.50
2018-09-14T07:36:14.434Z,87.30
2018-09-14T07:38:43.090Z,87.00
2018-09-14T07:41:11.439Z,86.50
2018-09-14T07:43:39.766Z,86.30
2018-09-14T07:46:08.118Z,86.20
2018-09-14T07:48:36.438Z,85.30
2018-09-14T07:51:04.800Z,85.00
2018-09-14T07:53:33.962Z,84.30
2018-09-14T07:56:02.303Z,84.40
2018-09-14T07:58:30.637Z,84.70
2018-09-14T08:00:59.000Z,85.10
2018-09-14T08:03:27.345Z,83.60
2018-09-14T08:05:55.695Z,83.60
2018-09-14T08:08:24.046Z,83.50
2018-09-14T08:10:52.422Z,83.50
2018-09-14T08:13:20.827Z,83.40
2018-09-14T08:15:49.153Z,83.20
2018-09-14T08:18:17.485Z,82.80
2018-09-14T08:20:45.847Z,82.50
2018-09-14T08:23:14.195Z,82.40
2018-09-14T08:25:42.534Z,82.80
2018-09-14T08:28:10.879Z,82.60
2018-09-14T08:30:39.233Z,82.50
2018-09-14T08:33:07.550Z,83.00
2018-09-14T08:35:35.915Z,82.70
2018-09-14T08:38:04.246Z,82.70
2018-09-14T08:40:32.594Z,82.60
2018-09-14T08:43:00.935Z,82.90
2018-09-14T08:45:29.305Z,83.50
2018-09-14T08:47:57.751Z,82.10
2018-09-14T08:50:26.023Z,82.20
2018-09-14T08:52:54.391Z,81.90
2018-09-14T08:55:22.754Z,81.20
2018-09-14T08:57:51.098Z,80.30
2018-09-14T09:00:24.319Z,80.00
2018-09-14T09:02:53.490Z,80.00
2018-09-14T09:05:22.294Z,79.30
2018-09-14T09:07:50.877Z,78.10
2018-09-14T09:10:19.270Z,77.40
2018-09-14T09:12:47.988Z,76.70
2018-09-14T09:15:16.348Z,76.50
2018-09-14T09:17:44.718Z,77.30
2018-09-14T09:20:13.087Z,77.60
2018-09-14T09:22:41.412Z,77.50
2018-09-14T09:25:09.762Z,76.40
2018-09-14T09:27:38.095Z,76.40
2018-09-14T09:30:06.490Z,75.70
2018-09-14T09:32:34.808Z,75.90
2018-09-14T09:35:03.151Z,76.10
2018-09-14T09:37:31.483Z,75.20
2018-09-14T09:39:59.833Z,74.50
2018-09-14T09:42:28.156Z,73.00
2018-09-14T09:44:56.577Z,73.40
2018-09-14T09:47:24.902Z,73.40
2018-09-14T09:49:53.250Z,73.70
2018-09-14T09:52:21.583Z,73.30
2018-09-14T09:54:49.947Z,72.60
2018-09-14T09:57:18.287Z,72.20
2018-09-14T09:59:46.620Z,72.30
2018-09-14T10:02:20.284Z,72.10
2018-09-14T10:04:53.970Z,72.10
2018-09-14T10:07:25.535Z,72.40
2018-09-14T10:09:54.100Z,71.70
2018-09-14T10:12:22.600Z,71.50
2018-09-14T10:14:50.977Z,71.30
2018-09-14T10:17:19.343Z,70.80
2018-09-14T10:19:47.879Z,70.90
2018-09-14T10:22:16.308Z,70.40
2018-09-14T10:24:44.670Z,71.00
2018-09-14T10:27:13.027Z,71.00
2018-09-14T10:29:41.370Z,71.20
2018-09-14T10:32:09.694Z,70.00
2018-09-14T10:34:38.044Z,69.60
2018-09-14T10:37:06.476Z,69.90
2018-09-14T10:39:34.790Z,69.60
2018-09-14T10:42:03.143Z,70.00
2018-09-14T10:44:31.489Z,68.80
2018-09-14T10:46:59.814Z,68.50
2018-09-14T10:49:28.166Z,68.90
2018-09-14T10:51:56.503Z,67.90
2018-09-14T10:54:31.381Z,67.30
2018-09-14T10:56:59.731Z,67.00
2018-09-14T10:59:28.116Z,67.40
2018-09-14T11:01:56.459Z,67.40
2018-09-14T11:04:24.845Z,66.60
2018-09-14T11:06:53.247Z,67.10
2018-09-14T11:09:21.564Z,66.50
2018-09-14T11:11:49.891Z,65.40
2018-09-14T11:14:18.238Z,65.00
2018-09-14T11:16:46.565Z,65.60
2018-09-14T11:19:14.906Z,66.30
2018-09-14T11:21:43.598Z,66.40
2018-09-14T11:24:11.959Z,64.50
2018-09-14T11:26:40.287Z,63.60
2018-09-14T11:29:08.642Z,62.90
2018-09-14T11:31:37.001Z,62.60
2018-09-14T11:34:05.387Z,62.10
2018-09-14T11:36:33.727Z,62.00
2018-09-14T11:39:02.084Z,61.40
2018-09-14T11:44:05.193Z,60.10
2018-09-14T11:46:33.546Z,60.00
2018-09-14T11:49:01.903Z,59.50
2018-09-14T11:51:30.247Z,59.80
2018-09-14T11:53:58.606Z,60.20
2018-09-14T11:56:26.923Z,59.90
2018-09-14T11:58:55.273Z,60.00
2018-09-14T12:01:23.626Z,60.80
2018-09-14T12:03:52.016Z,59.40
2018-09-14T12:06:20.373Z,59.20
2018-09-14T12:08:48.721Z,59.10
2018-09-14T12:11:17.222Z,59.00
2018-09-14T12:13:45.765Z,59.00
2018-09-14T12:16:14.022Z,59.00
2018-09-14T12:18:42.422Z,58.40
2018-09-14T12:21:10.758Z,58.80
2018-09-14T12:23:45.912Z,58.60
2018-09-14T12:26:14.254Z,58.10
2018-09-14T12:28:42.603Z,58.90
2018-09-14T12:31:10.958Z,58.90
2018-09-14T12:33:39.278Z,59.00
2018-09-14T12:36:07.631Z,57.90
2018-09-14T12:38:35.970Z,56.60
2018-09-14T12:41:04.325Z,56.60
2018-09-14T12:43:32.830Z,56.60
2018-09-14T12:46:01.206Z,56.30
2018-09-14T12:48:29.563Z,56.10
2018-09-14T12:50:57.902Z,56.20
2018-09-14T12:53:26.222Z,56.30
2018-09-14T12:55:54.570Z,55.50
2018-09-14T12:58:22.911Z,53.90
2018-09-14T13:00:51.310Z,53.80
2018-09-14T13:03:19.637Z,54.00
2018-09-14T13:05:48.093Z,52.70
2018-09-14T13:08:16.434Z,52.40
2018-09-14T13:10:44.773Z,52.40
2018-09-14T13:13:13.097Z,52.40
2018-09-14T13:15:41.441Z,53.30
2018-09-14T13:18:09.763Z,52.90
2018-09-14T13:20:38.123Z,52.50
2018-09-14T13:23:06.447Z,52.40
2018-09-14T13:25:34.790Z,51.80
2018-09-14T13:28:03.201Z,51.50
2018-09-14T13:30:31.606Z,51.40
2018-09-14T13:32:59.926Z,52.00
2018-09-14T13:35:28.269Z,52.10
2018-09-14T13:37:56.599Z,51.90
2018-09-14T13:40:24.951Z,51.90
2018-09-14T13:42:53.295Z,51.70
2018-09-14T13:45:21.666Z,51.40
2018-09-14T13:47:50.000Z,50.70
2018-09-14T13:50:18.348Z,50.80
2018-09-14T13:52:46.677Z,50.60
2018-09-14T13:55:15.047Z,50.80
2018-09-14T13:57:43.374Z,51.10
2018-09-14T14:00:11.763Z,50.90
2018-09-14T14:02:40.105Z,50.40
2018-09-14T14:05:08.453Z,50.90
2018-09-14T14:07:36.786Z,51.30
2018-09-14T14:10:05.162Z,51.40
2018-09-14T14:12:33.494Z,51.00
2018-09-14T14:15:01.855Z,51.00
2018-09-14T14:17:30.457Z,51.10
2018-09-14T14:19:58.670Z,50.90
2018-09-14T14:22:26.993Z,50.70
2018-09-14T14:24:55.352Z,50.50
2018-09-14T14:27:23.682Z,50.50
2018-09-14T14:29:52.009Z,51.10
2018-09-14T14:32:20.397Z,51.10
2018-09-14T14:34:48.734Z,51.20
2018-09-14T14:37:17.075Z,51.20
2018-09-14T14:39:45.427Z,51.20
2018-09-14T14:42:13.776Z,51.00
2018-09-14T14:44:42.093Z,50.90
2018-09-14T14:47:10.515Z,50.80
2018-09-14T14:49:38.873Z,50.90
2018-09-14T14:52:07.219Z,50.90
2018-09-14T14:54:35.542Z,50.60
2018-09-14T14:57:03.887Z,50.00
2018-09-14T14:59:32.268Z,50.10
2018-09-14T15:02:00.625Z,50.20
2018-09-14T15:04:28.949Z,50.40
2018-09-14T15:06:57.298Z,51.00
2018-09-14T15:09:25.634Z,50.40
2018-09-14T15:11:53.981Z,50.80
2018-09-14T15:14:22.308Z,51.00
2018-09-14T15:16:50.661Z,51.50
2018-09-14T15:19:19.053Z,51.20
2018-09-14T15:21:47.378Z,51.00
2018-09-14T15:24:15.717Z,51.20
2018-09-14T15:26:44.080Z,51.60
2018-09-14T15:29:12.410Z,51.30
2018-09-14T15:31:40.758Z,51.50
2018-09-14T15:34:09.093Z,51.60
2018-09-14T15:36:37.430Z,51.40
2018-09-14T15:39:09.012Z,51.50
2018-09-14T15:41:37.362Z,51.50
2018-09-14T15:44:05.707Z,51.70
2018-09-14T15:46:34.059Z,52.00
2018-09-14T15:49:02.462Z,53.00
2018-09-14T15:51:30.925Z,52.80
2018-09-14T15:53:59.261Z,53.30
2018-09-14T15:56:27.606Z,53.40
2018-09-14T15:58:56.075Z,52.90
2018-09-14T16:01:24.487Z,53.20
2018-09-14T16:03:52.790Z,53.30
2018-09-14T16:06:21.155Z,53.30
2018-09-14T16:08:49.483Z,54.50
2018-09-14T16:11:17.877Z,54.20
2018-09-14T16:13:46.238Z,53.90
2018-09-14T16:16:14.579Z,54.10
2018-09-14T16:18:42.915Z,54.60
2018-09-14T16:21:11.259Z,55.00
2018-09-14T16:23:39.598Z,55.30
2018-09-14T16:26:07.950Z,55.40
2018-09-14T16:28:36.283Z,55.60
2018-09-14T16:31:04.627Z,55.40
2018-09-14T16:33:32.949Z,55.10
2018-09-14T16:36:01.285Z,55.10
2018-09-14T16:38:29.622Z,55.00
2018-09-14T16:40:57.954Z,54.90
2018-09-14T16:43:26.294Z,54.80
2018-09-14T16:45:54.633Z,54.60
2018-09-14T16:48:22.974Z,54.10
2018-09-14T16:50:51.303Z,54.00
2018-09-14T16:53:26.511Z,54.00
2018-09-14T16:55:54.843Z,54.40
2018-09-14T16:58:23.196Z,55.10
2018-09-14T17:00:51.849Z,54.60
2018-09-14T17:03:20.194Z,54.70
2018-09-14T17:05:48.541Z,54.90
2018-09-14T17:08:16.892Z,55.20
2018-09-14T17:10:45.218Z,55.30
2018-09-14T17:13:13.562Z,55.60
2018-09-14T17:15:41.897Z,55.80
2018-09-14T17:18:10.256Z,55.90
2018-09-14T17:20:38.606Z,56.00
2018-09-14T17:23:06.952Z,56.60
2018-09-14T17:25:35.280Z,57.10
2018-09-14T17:28:03.630Z,57.50
2018-09-14T17:30:31.961Z,57.70
2018-09-14T17:33:00.342Z,58.00
2018-09-14T17:35:28.755Z,58.10
2018-09-14T17:37:57.077Z,58.30
2018-09-14T17:40:25.410Z,58.60
2018-09-14T17:42:53.761Z,58.80
2018-09-14T17:45:22.082Z,59.10
2018-09-14T17:47:50.456Z,59.40
2018-09-14T17:50:18.781Z,59.50
2018-09-14T17:52:47.126Z,59.70
2018-09-14T17:55:15.467Z,59.80
2018-09-14T17:57:43.818Z,60.10
2018-09-14T18:00:12.166Z,60.30
2018-09-14T18:02:40.514Z,60.50
2018-09-14T18:05:08.849Z,60.60
2018-09-14T18:07:37.190Z,60.70
2018-09-14T18:10:05.694Z,60.70
2018-09-14T18:12:34.039Z,60.80
2018-09-14T18:15:02.365Z,60.80
2018-09-14T18:17:30.708Z,61.00
2018-09-14T18:19:59.026Z,61.00
2018-09-14T18:22:27.394Z,61.00
2018-09-14T18:24:55.709Z,61.30
2018-09-14T18:27:24.106Z,61.40
2018-09-14T18:29:52.412Z,61.70
2018-09-14T18:32:20.764Z,61.70
2018-09-14T18:34:49.134Z,61.80
2018-09-14T18:37:17.498Z,62.00
2018-09-14T18:39:45.830Z,62.20
2018-09-14T18:42:14.187Z,62.20
2018-09-14T18:44:42.518Z,62.40
2018-09-14T18:47:10.881Z,62.70
2018-09-14T18:49:39.197Z,62.80
2018-09-14T18:52:07.538Z,62.90
2018-09-14T18:54:35.875Z,63.30
2018-09-14T18:57:04.227Z,63.70
2018-09-14T18:59:32.578Z,64.00
2018-09-14T19:02:00.894Z,64.50
2018-09-14T19:04:29.237Z,64.10
2018-09-14T19:06:57.549Z,64.20
2018-09-14T19:09:25.885Z,64.20
2018-09-14T19:11:54.215Z,64.40
2018-09-14T19:14:22.571Z,64.60
2018-09-14T19:16:57.482Z,64.70
2018-09-14T19:19:25.951Z,64.90
2018-09-14T19:21:54.205Z,64.60
2018-09-14T19:24:22.595Z,64.30
2018-09-14T19:26:50.945Z,64.20
2018-09-14T19:29:19.321Z,64.50
2018-09-14T19:31:47.646Z,64.40
2018-09-14T19:34:15.999Z,64.20
2018-09-14T19:36:44.322Z,64.40
2018-09-14T19:39:13.587Z,64.30
2018-09-14T19:41:41.902Z,64.30
2018-09-14T19:44:10.262Z,64.30
2018-09-14T19:46:38.599Z,63.40
2018-09-14T19:49:06.951Z,63.80
2018-09-14T19:51:35.285Z,63.80
2018-09-14T19:54:03.640Z,64.00
2018-09-14T19:56:31.970Z,64.00
2018-09-14T19:59:00.312Z,64.20
2018-09-14T20:01:28.654Z,64.20
2018-09-14T20:03:56.981Z,64.20
2018-09-14T20:06:25.311Z,64.20
2018-09-14T20:08:53.663Z,64.20
2018-09-14T20:11:22.076Z,64.30
2018-09-14T20:13:50.470Z,64.40
2018-09-14T20:16:19.134Z,64.60
2018-09-14T20:18:47.602Z,64.70
2018-09-14T20:21:24.986Z,64.60
2018-09-14T20:23:53.658Z,65.00
2018-09-14T20:26:21.999Z,65.00
2018-09-14T20:28:50.358Z,65.10
2018-09-14T20:31:18.702Z,65.20
2018-09-14T20:33:47.048Z,65.40
2018-09-14T20:36:15.382Z,65.90
2018-09-14T20:38:43.773Z,65.60
2018-09-14T20:41:12.106Z,65.70
2018-09-14T20:43:40.455Z,65.70
2018-09-14T20:46:08.799Z,65.80
2018-09-14T20:48:37.137Z,65.90
2018-09-14T20:51:05.495Z,65.90
2018-09-14T20:53:33.848Z,66.20
2018-09-14T20:56:02.170Z,66.20
2018-09-14T20:58:30.584Z,66.20
2018-09-14T21:00:58.892Z,66.40
2018-09-14T21:03:27.236Z,66.40
2018-09-14T21:05:55.735Z,66.70
2018-09-14T21:08:24.182Z,66.80
2018-09-14T21:10:52.506Z,66.90
2018-09-14T21:13:20.876Z,67.10
2018-09-14T21:15:49.214Z,67.30
2018-09-14T21:18:17.553Z,67.50
2018-09-14T21:20:45.874Z,67.10
2018-09-14T21:23:14.227Z,67.80
2018-09-14T21:25:42.547Z,67.70
2018-09-14T21:28:10.878Z,67.60
2018-09-14T21:30:39.231Z,67.50
2018-09-14T21:33:07.570Z,67.40
2018-09-14T21:35:35.918Z,67.40
2018-09-14T21:38:04.250Z,67.30
2018-09-14T21:40:32.619Z,67.30
2018-09-14T21:43:00.924Z,67.30
2018-09-14T21:45:29.262Z,67.60
2018-09-14T21:47:57.586Z,67.70
2018-09-14T21:50:25.935Z,67.40
2018-09-14T21:52:54.255Z,67.30
2018-09-14T21:55:22.619Z,67.40
2018-09-14T21:57:50.954Z,67.40
2018-09-14T22:00:24.586Z,67.30
2018-09-14T22:02:53.013Z,67.20
2018-09-14T22:05:21.355Z,67.30
2018-09-14T22:07:49.674Z,67.20
2018-09-14T22:10:18.011Z,67.50
2018-09-14T22:12:46.334Z,67.50
2018-09-14T22:15:14.686Z,67.60
2018-09-14T22:17:43.043Z,67.70
2018-09-14T22:20:11.386Z,67.90
2018-09-14T22:22:39.709Z,68.10
2018-09-14T22:25:08.050Z,68.40
2018-09-14T22:27:36.369Z,68.50
2018-09-14T22:30:05.454Z,68.90
2018-09-14T22:32:33.781Z,68.90
2018-09-14T22:35:02.118Z,68.70
2018-09-14T22:37:30.446Z,68.80
2018-09-14T22:39:58.839Z,68.70
2018-09-14T22:42:27.219Z,68.30
2018-09-14T22:44:55.549Z,68.20
2018-09-14T22:47:23.878Z,68.30
2018-09-14T22:49:52.237Z,69.10
2018-09-14T22:52:20.561Z,68.60
2018-09-14T22:54:48.926Z,68.60
2018-09-14T22:57:17.229Z,68.40
2018-09-14T22:59:45.582Z,68.50
2018-09-14T23:02:13.888Z,68.70
2018-09-14T23:04:42.237Z,68.70
2018-09-14T23:07:10.558Z,68.90
2018-09-14T23:09:38.901Z,68.80
2018-09-14T23:12:07.223Z,68.80
2018-09-14T23:14:35.585Z,68.70
2018-09-14T23:17:03.893Z,68.70
2018-09-14T23:19:32.225Z,68.80
2018-09-14T23:22:00.542Z,68.60
2018-09-14T23:24:28.881Z,68.70
2018-09-14T23:26:57.205Z,68.70
2018-09-14T23:29:25.532Z,68.80
2018-09-14T23:31:53.846Z,68.50
2018-09-14T23:34:22.183Z,68.70
2018-09-14T23:36:50.605Z,68.70
2018-09-14T23:39:18.954Z,68.70
2018-09-14T23:41:47.269Z,68.80
2018-09-14T23:44:15.580Z,68.70
2018-09-14T23:46:43.915Z,68.80
2018-09-14T23:49:12.227Z,69.00
2018-09-14T23:51:40.566Z,69.30
2018-09-14T23:54:08.882Z,69.30
2018-09-14T23:56:37.213Z,69.30
2018-09-14T23:59:05.546Z,70.00
